Time;durP1;ratioP1;P1;durP2;ratioP2;P2;SDS_P1;SDS_P2;PMS_P1;PMS_P2;Temp;Humidity;BMP_temperature;BMP_pressure;BME280_temperature;BME280_humidity;BME280_pressure;Samples;Min_cycle;Max_cycle;Signal;HPM_P1;HPM_P2
2022/01/21 00:01:56;;;;;;;9.23;3.60;;;;;;;-0.83;78.30;97194.16;5070142;28;20045;-75
2022/01/21 00:04:22;;;;;;;12.52;3.88;;;;;;;-0.82;78.58;97194.97;5070107;28;20388;-73
2022/01/21 00:06:49;;;;;;;7.22;3.20;;;;;;;-0.85;78.42;97188.22;5070194;28;20044;-75
2022/01/21 00:09:15;;;;;;;9.80;3.20;;;;;;;-0.85;78.31;97204.25;5069624;28;20052;-75
2022/01/21 00:11:42;;;;;;;11.90;3.40;;;;;;;-0.92;79.17;97197.38;5072505;28;20048;-75
2022/01/21 00:14:09;;;;;;;8.40;3.50;;;;;;;-0.94;80.28;97194.94;5089744;28;20052;-73
2022/01/21 00:16:38;;;;;;;16.80;3.42;;;;;;;-0.92;80.25;97205.38;5090165;28;20066;-73
2022/01/21 00:19:09;;;;;;;11.00;3.50;;;;;;;-0.92;79.70;97200.84;5089471;28;20048;-74
2022/01/21 00:32:48;;;;;;;10.55;3.38;;;;;;;-0.92;79.15;97208.88;5046496;28;20041;-75
2022/01/21 00:35:18;;;;;;;8.93;3.33;;;;;;;-0.90;79.19;97214.81;5077672;28;20048;-75
2022/01/21 00:37:45;;;;;;;8.90;3.25;;;;;;;-0.93;79.00;97212.59;5089472;28;20047;-74
2022/01/21 00:40:16;;;;;;;9.68;3.40;;;;;;;-0.88;78.88;97212.75;5106202;27;20051;-75
2022/01/21 00:42:53;;;;;;;8.80;3.00;;;;;;;-0.86;78.86;97202.63;5117331;27;20058;-75
2022/01/21 00:45:20;;;;;;;10.00;3.58;;;;;;;-0.88;79.09;97218.09;5109184;28;20502;-74
2022/01/21 00:47:48;;;;;;;8.73;3.58;;;;;;;-0.92;79.18;97216.09;5109645;28;20050;-74
2022/01/21 00:50:16;;;;;;;10.15;3.38;;;;;;;-0.95;79.02;97217.34;5109202;28;20047;-75
2022/01/21 00:52:44;;;;;;;8.10;3.85;;;;;;;-0.90;79.13;97230.03;5109786;28;20047;-74
2022/01/21 00:55:11;;;;;;;12.45;4.45;;;;;;;-0.86;78.81;97229.38;5109387;28;20051;-75
2022/01/21 00:57:38;;;;;;;9.15;4.00;;;;;;;-0.83;78.97;97220.91;5109515;28;20054;-74
2022/01/21 01:00:08;;;;;;;11.98;3.97;;;;;;;-0.82;78.87;97225.22;5109421;28;20052;-75
2022/01/21 01:02:34;;;;;;;15.40;4.18;;;;;;;-0.74;79.00;97234.78;5109522;28;20509;-75
2022/01/21 01:05:01;;;;;;;8.82;3.65;;;;;;;-0.72;78.56;97237.25;5109621;28;20421;-74
2022/01/21 01:07:28;;;;;;;10.73;3.20;;;;;;;-0.72;78.03;97247.94;5108886;28;20055;-75
2022/01/21 01:09:57;;;;;;;6.90;3.00;;;;;;;-0.72;78.11;97253.28;5109647;28;20051;-75
2022/01/21 01:12:37;;;;;;;7.32;3.08;;;;;;;-0.68;78.53;97249.09;5108252;28;20097;-75
2022/01/21 01:20:45;;;;;;;10.38;3.20;;;;;;;-0.70;79.39;97256.53;5045737;28;20124;-75
2022/01/21 01:23:25;;;;;;;12.75;3.72;;;;;;;-0.73;79.41;97265.00;5093406;28;20696;-74
2022/01/21 01:28:36;;;;;;;9.63;2.63;;;;;;;-0.83;82.15;97269.03;5108727;28;20615;-74
2022/01/21 01:31:03;;;;;;;5.60;1.90;;;;;;;-1.01;83.69;97274.38;5108649;28;20516;-74
2022/01/21 01:33:35;;;;;;;5.65;1.23;;;;;;;-1.14;84.71;97287.88;5108982;28;20047;-75
2022/01/21 01:36:03;;;;;;;4.15;1.20;;;;;;;-1.29;85.88;97280.22;5108661;28;20054;-74
2022/01/21 01:41:14;;;;;;;4.32;1.42;;;;;;;-1.53;86.95;97289.84;5090037;28;20054;-74
2022/01/21 01:51:44;;;;;;;3.78;1.58;;;;;;;-1.50;87.49;97289.44;5129028;27;20050;-74
2022/01/21 01:54:14;;;;;;;3.42;2.00;;;;;;;-1.50;87.86;97294.78;5128539;27;20047;-74
2022/01/21 01:56:44;;;;;;;6.75;1.40;;;;;;;-1.45;87.85;97297.59;5129145;27;20516;-74
2022/01/21 01:59:11;;;;;;;4.25;1.40;;;;;;;-1.46;88.04;97295.97;5128389;27;20058;-74
2022/01/21 02:01:37;;;;;;;7.15;1.15;;;;;;;-1.45;88.32;97292.25;5129126;27;20043;-75
2022/01/21 02:04:05;;;;;;;3.67;1.15;;;;;;;-1.46;88.29;97287.13;5128461;27;20051;-74
2022/01/21 02:06:31;;;;;;;4.28;1.10;;;;;;;-1.43;88.00;97284.84;5128825;27;20544;-74
2022/01/21 02:08:59;;;;;;;5.22;1.15;;;;;;;-1.49;87.98;97285.72;5128644;27;20051;-74
2022/01/21 02:11:27;;;;;;;1.90;1.00;;;;;;;-1.55;88.22;97286.59;5126093;27;20505;-74
2022/01/21 02:13:58;;;;;;;5.63;1.10;;;;;;;-1.68;88.01;97281.34;5108165;28;20044;-74
2022/01/21 02:16:44;;;;;;;3.13;1.30;;;;;;;-1.69;88.45;97279.72;5107753;28;20050;-74
2022/01/21 02:21:56;;;;;;;4.97;1.85;;;;;;;-1.65;87.54;97275.59;5108227;28;20049;-74
2022/01/21 02:24:31;;;;;;;7.63;1.20;;;;;;;-1.70;87.28;97273.56;5107457;28;20054;-74
2022/01/21 02:27:00;;;;;;;5.97;1.58;;;;;;;-1.66;87.10;97268.63;5107915;28;20051;-74
2022/01/21 02:29:29;;;;;;;6.63;1.55;;;;;;;-1.73;85.84;97259.81;5107608;28;20069;-74
2022/01/21 02:31:57;;;;;;;8.00;1.85;;;;;;;-1.73;85.46;97257.16;5107923;28;20752;-74
2022/01/21 02:34:24;;;;;;;7.97;2.38;;;;;;;-1.71;85.12;97258.59;5107678;28;20066;-74
2022/01/21 02:36:50;;;;;;;11.77;1.92;;;;;;;-1.71;84.70;97260.44;5108091;28;20520;-74
2022/01/21 02:39:18;;;;;;;9.80;2.30;;;;;;;-1.75;84.44;97269.91;5107356;28;20054;-74
2022/01/21 02:41:45;;;;;;;5.88;1.92;;;;;;;-1.76;84.46;97273.63;5107703;28;20044;-74
2022/01/21 02:44:15;;;;;;;7.30;2.00;;;;;;;-1.74;84.28;97271.53;5107372;28;20521;-75
2022/01/21 02:46:43;;;;;;;7.22;2.30;;;;;;;-1.75;83.93;97273.41;5107888;28;20054;-74
2022/01/21 02:49:10;;;;;;;6.18;1.95;;;;;;;-1.71;83.63;97281.81;5107244;28;20054;-74
2022/01/21 02:51:37;;;;;;;8.57;1.80;;;;;;;-1.69;83.41;97279.72;5107797;28;20520;-75
2022/01/21 02:54:07;;;;;;;8.82;2.30;;;;;;;-1.68;82.99;97276.81;5107488;28;20054;-75
2022/01/21 02:56:37;;;;;;;6.95;2.50;;;;;;;-1.65;82.56;97286.25;5107915;28;20051;-75
2022/01/21 02:59:04;;;;;;;9.18;2.47;;;;;;;-1.61;82.72;97271.44;5107406;28;20498;-74
2022/01/21 03:01:32;;;;;;;6.68;2.70;;;;;;;-1.59;82.60;97274.72;5109527;28;20148;-74
2022/01/21 03:03:59;;;;;;;7.53;2.72;;;;;;;-1.53;82.42;97279.16;5112107;28;20047;-74
2022/01/21 03:06:26;;;;;;;7.55;2.90;;;;;;;-1.52;82.38;97291.47;5111102;28;20573;-74
2022/01/21 03:08:57;;;;;;;11.75;2.92;;;;;;;-1.49;82.21;97291.06;5111776;28;20043;-74
2022/01/21 03:11:25;;;;;;;13.18;3.50;;;;;;;-1.45;82.15;97292.25;5110872;28;20490;-74
2022/01/21 03:13:53;;;;;;;6.65;3.15;;;;;;;-1.42;81.94;97294.47;5111613;28;20137;-74
2022/01/21 03:16:20;;;;;;;7.78;3.38;;;;;;;-1.42;82.00;97291.81;5111122;28;20731;-74
2022/01/21 03:18:47;;;;;;;10.35;3.38;;;;;;;-1.42;81.83;97286.47;5111606;28;20040;-74
2022/01/21 03:21:16;;;;;;;8.60;3.42;;;;;;;-1.39;81.95;97288.72;5111097;28;20421;-74
2022/01/21 03:23:46;;;;;;;9.15;3.42;;;;;;;-1.38;81.97;97285.00;5111559;28;20541;-75
2022/01/21 03:26:15;;;;;;;12.38;3.53;;;;;;;-1.35;81.97;97286.44;5110870;28;20563;-74
2022/01/21 03:28:42;;;;;;;9.50;3.30;;;;;;;-1.32;81.89;97291.31;5111133;28;20052;-74
2022/01/21 03:31:10;;;;;;;10.50;3.47;;;;;;;-1.35;82.09;97287.25;5110754;28;20047;-74
2022/01/21 03:33:37;;;;;;;10.43;3.60;;;;;;;-1.35;82.41;97286.44;5111494;28;20045;-74
2022/01/21 03:36:05;;;;;;;14.13;4.82;;;;;;;-1.37;82.28;97291.97;5110769;28;20059;-74
2022/01/21 03:38:31;;;;;;;8.10;3.45;;;;;;;-1.30;82.29;97299.13;5110969;28;20058;-75
2022/01/21 03:40:58;;;;;;;9.80;3.55;;;;;;;-1.26;82.18;97286.94;5109319;27;20047;-75
2022/01/21 03:43:25;;;;;;;13.48;4.07;;;;;;;-1.28;82.05;97289.84;5131473;27;20043;-74
2022/01/21 03:45:52;;;;;;;9.10;3.45;;;;;;;-1.28;82.19;97289.03;5131688;27;20055;-74
2022/01/21 03:48:21;;;;;;;13.55;4.03;;;;;;;-1.19;82.41;97301.09;5131145;27;20051;-75
2022/01/21 03:50:48;;;;;;;18.00;4.43;;;;;;;-1.18;81.90;97297.38;5131510;27;20042;-74
2022/01/21 03:53:15;;;;;;;10.50;3.80;;;;;;;-1.18;81.97;97298.19;5130822;27;20051;-74
2022/01/21 03:55:42;;;;;;;15.45;4.35;;;;;;;-1.14;81.52;97301.25;5131297;27;20516;-74
2022/01/21 03:58:10;;;;;;;9.32;3.67;;;;;;;-1.12;81.28;97296.47;5130867;27;20051;-74
2022/01/21 04:00:40;;;;;;;14.38;3.97;;;;;;;-1.07;81.05;97299.31;5131506;27;20410;-74
2022/01/21 04:03:07;;;;;;;10.48;4.38;;;;;;;-1.06;80.61;97295.59;5130816;27;20043;-74
2022/01/21 04:05:35;;;;;;;7.75;3.60;;;;;;;-1.11;80.45;97290.09;5131437;27;20484;-74
2022/01/21 04:08:03;;;;;;;12.00;3.35;;;;;;;-1.09;81.26;97330.81;5130526;27;20059;-73
2022/01/21 04:10:30;;;;;;;6.68;2.15;;;;;;;-1.07;83.47;97334.88;5131119;27;20046;-74
2022/01/21 04:12:57;;;;;;;3.83;1.13;;;;;;;-1.18;83.95;97338.28;5108454;28;20055;-74
2022/01/21 04:15:24;;;;;;;3.90;1.13;;;;;;;-1.35;84.57;97337.19;5109604;28;20127;-74
2022/01/21 04:17:51;;;;;;;3.78;0.85;;;;;;;-1.43;85.00;97332.94;5110116;28;20586;-74
2022/01/21 04:20:17;;;;;;;4.18;0.80;;;;;;;-1.53;85.18;97337.13;5109812;28;20897;-74
2022/01/21 04:22:45;;;;;;;9.95;0.90;;;;;;;-1.61;85.49;97332.88;5110412;28;20040;-74
2022/01/21 04:25:12;;;;;;;9.77;1.50;;;;;;;-1.68;85.68;97335.56;5109613;28;20062;-74
2022/01/21 04:27:39;;;;;;;3.63;0.95;;;;;;;-1.69;85.57;97349.97;5110020;28;20043;-74
2022/01/21 04:30:08;;;;;;;5.82;1.27;;;;;;;-1.76;85.56;97353.72;5109632;28;20502;-74
2022/01/21 04:32:34;;;;;;;4.43;1.10;;;;;;;-1.77;85.76;97352.91;5109960;28;20574;-74
2022/01/21 04:35:01;;;;;;;4.03;1.00;;;;;;;-1.71;85.92;97359.25;5109835;28;20062;-74
2022/01/21 04:37:27;;;;;;;7.07;1.35;;;;;;;-1.69;85.75;97371.31;5109476;28;20043;-74
2022/01/21 04:40:01;;;;;;;6.95;1.30;;;;;;;-1.75;85.54;97371.38;5109859;28;20126;-74
2022/01/21 04:47:56;;;;;;;9.77;1.17;;;;;;;-1.76;87.36;97354.53;5109820;28;20059;-74
2022/01/21 04:50:25;;;;;;;7.55;1.90;;;;;;;-1.75;86.55;97360.69;5109438;28;20051;-74
2022/01/21 04:52:51;;;;;;;6.30;1.50;;;;;;;-1.73;86.25;97362.09;5109879;28;20051;-74
2022/01/21 04:55:19;;;;;;;3.47;1.17;;;;;;;-1.73;86.10;97366.63;5109056;28;20777;-74
2022/01/21 04:57:45;;;;;;;3.45;1.00;;;;;;;-1.72;86.00;97368.25;5109803;28;20047;-75
2022/01/21 05:00:13;;;;;;;7.05;1.45;;;;;;;-1.75;85.68;97364.19;5109236;28;20573;-74
2022/01/21 05:02:39;;;;;;;5.72;1.13;;;;;;;-1.74;85.80;97367.66;5109919;28;20097;-74
2022/01/21 05:05:08;;;;;;;3.55;1.00;;;;;;;-1.73;85.47;97385.31;5108972;28;20062;-74
2022/01/21 05:07:38;;;;;;;7.80;1.33;;;;;;;-1.77;86.21;97386.81;5109058;28;20040;-74
2022/01/21 05:10:05;;;;;;;6.40;1.52;;;;;;;-1.73;86.06;97390.66;5108786;28;20075;-74
2022/01/21 05:12:33;;;;;;;4.55;1.27;;;;;;;-1.70;85.89;97400.91;5109200;28;20160;-74
2022/01/21 05:15:14;;;;;;;6.15;1.20;;;;;;;-1.77;85.90;97400.97;5091131;28;20221;-74
2022/01/21 05:17:45;;;;;;;6.57;1.10;;;;;;;-1.76;86.79;97396.44;5108924;28;20124;-74
2022/01/21 05:20:13;;;;;;;6.55;1.42;;;;;;;-1.72;86.72;97403.81;5108648;28;20039;-74
2022/01/21 05:22:40;;;;;;;5.30;1.50;;;;;;;-1.68;86.21;97404.19;5109007;28;20155;-74
2022/01/21 05:25:06;;;;;;;7.85;1.45;;;;;;;-1.67;85.88;97405.81;5107802;28;20050;-75
2022/01/21 05:27:34;;;;;;;8.68;1.02;;;;;;;-1.65;85.78;97401.91;5108460;28;20051;-75
2022/01/21 05:30:01;;;;;;;5.72;1.02;;;;;;;-1.51;85.31;97405.34;5122365;27;20051;-75
2022/01/21 05:32:27;;;;;;;6.45;1.23;;;;;;;-1.55;84.45;97397.97;5128935;27;20039;-74
2022/01/21 05:34:54;;;;;;;8.52;1.88;;;;;;;-1.51;84.38;97401.81;5129276;27;20035;-74
2022/01/21 05:37:21;;;;;;;10.25;1.30;;;;;;;-1.42;84.03;97398.69;5128616;27;20062;-75
2022/01/21 05:39:47;;;;;;;4.70;1.25;;;;;;;-1.41;83.76;97395.00;5128952;27;20058;-74
2022/01/21 05:42:13;;;;;;;7.47;1.48;;;;;;;-1.35;83.60;97410.16;5113963;27;20055;-75
2022/01/21 05:47:25;;;;;;;5.60;1.80;;;;;;;-1.29;82.97;97413.00;5108215;28;20058;-75
2022/01/21 05:49:52;;;;;;;6.05;1.25;;;;;;;-1.33;82.77;97418.75;5108542;28;20040;-74
2022/01/21 05:52:20;;;;;;;5.78;1.38;;;;;;;-1.33;82.51;97424.09;5108061;28;20498;-74
2022/01/21 05:54:47;;;;;;;10.40;2.42;;;;;;;-1.33;82.40;97424.09;5108555;28;20126;-74
2022/01/21 05:57:16;;;;;;;7.43;1.60;;;;;;;-1.28;82.03;97422.66;5107862;28;20593;-75
2022/01/21 05:59:45;;;;;;;10.57;1.90;;;;;;;-1.28;81.81;97436.00;5108832;28;20070;-74
2022/01/21 06:02:12;;;;;;;12.20;1.52;;;;;;;-1.29;81.61;97440.53;5107641;28;20044;-74
2022/01/21 06:04:40;;;;;;;8.02;1.90;;;;;;;-1.30;81.75;97438.91;5108675;28;20051;-75
2022/01/21 06:07:08;;;;;;;6.45;1.60;;;;;;;-1.25;81.66;97449.75;5107689;28;20057;-74
2022/01/21 06:09:34;;;;;;;8.93;2.28;;;;;;;-1.26;81.79;97452.63;5108479;28;20502;-74
2022/01/21 06:12:01;;;;;;;5.30;1.67;;;;;;;-1.21;81.93;97458.16;5108213;28;20066;-74
2022/01/21 06:14:27;;;;;;;8.75;2.72;;;;;;;-1.16;81.75;97463.66;5108245;28;20050;-74
2022/01/21 06:16:55;;;;;;;4.32;2.10;;;;;;;-1.13;81.83;97460.56;5108115;28;20044;-76
2022/01/21 06:19:22;;;;;;;7.55;1.75;;;;;;;-1.18;81.84;97457.72;5107490;28;20051;-77
2022/01/21 06:21:48;;;;;;;14.05;2.75;;;;;;;-1.15;81.98;97463.47;5108229;28;20507;-77
2022/01/21 06:24:15;;;;;;;6.95;1.77;;;;;;;-1.10;81.47;97457.44;5107493;28;20044;-73
2022/01/21 06:26:41;;;;;;;10.75;2.25;;;;;;;-1.12;81.08;97462.19;5107825;28;20048;-73
2022/01/21 06:29:08;;;;;;;6.15;1.70;;;;;;;-1.13;80.99;97465.91;5107227;28;20043;-73
2022/01/21 06:31:34;;;;;;;7.78;1.67;;;;;;;-1.22;80.52;97456.50;5106319;28;20043;-72
2022/01/21 06:34:03;;;;;;;5.78;1.70;;;;;;;-1.30;80.55;97462.13;5107991;28;20410;-73
2022/01/21 06:36:29;;;;;;;10.32;2.03;;;;;;;-1.41;80.82;97479.63;5107587;28;20039;-73
2022/01/21 06:38:56;;;;;;;6.53;1.63;;;;;;;-1.50;81.11;97487.09;5108086;28;20044;-73
2022/01/21 06:41:23;;;;;;;5.90;1.85;;;;;;;-1.59;80.84;97485.69;5112500;28;20051;-73
2022/01/21 06:43:50;;;;;;;4.45;1.83;;;;;;;-1.68;81.12;97490.47;5128211;27;20654;-73
2022/01/21 06:46:17;;;;;;;5.63;2.53;;;;;;;-1.74;81.20;97493.97;5128147;28;20135;-73
2022/01/21 06:48:43;;;;;;;4.47;1.85;;;;;;;-1.82;81.11;97496.09;5122010;27;20051;-73
2022/01/21 06:51:11;;;;;;;4.95;1.80;;;;;;;-1.92;81.64;97492.00;5107340;28;20035;-73
2022/01/21 06:53:37;;;;;;;5.60;1.70;;;;;;;-2.07;82.27;97502.13;5107968;28;20058;-73
2022/01/21 06:56:04;;;;;;;6.10;2.08;;;;;;;-2.18;82.48;97500.09;5108253;28;20051;-72
2022/01/21 06:58:31;;;;;;;9.63;2.13;;;;;;;-2.22;82.95;97505.03;5109188;28;20054;-74
2022/01/21 07:00:58;;;;;;;9.20;2.08;;;;;;;-2.22;82.76;97509.53;5107929;28;20052;-75
2022/01/21 07:03:25;;;;;;;6.43;2.78;;;;;;;-2.25;83.07;97504.59;5107078;28;20047;-75
2022/01/21 07:05:51;;;;;;;8.93;1.98;;;;;;;-2.23;83.53;97513.25;5107805;28;20043;-76
2022/01/21 07:08:20;;;;;;;6.05;1.92;;;;;;;-2.26;84.02;97509.13;5107003;28;20044;-74
2022/01/21 07:10:46;;;;;;;8.93;2.30;;;;;;;-2.30;84.49;97515.91;5107895;28;20051;-74
2022/01/21 07:13:13;;;;;;;5.10;1.90;;;;;;;-2.33;84.57;97518.19;5127696;28;20048;-74
2022/01/21 07:15:40;;;;;;;8.88;2.20;;;;;;;-2.38;84.99;97516.94;5128054;28;20047;-74
2022/01/21 07:18:06;;;;;;;9.60;2.15;;;;;;;-2.42;85.50;97521.06;5127704;28;20054;-73
2022/01/21 07:20:33;;;;;;;6.63;2.17;;;;;;;-2.43;85.65;97519.41;5128081;28;20043;-74
2022/01/21 07:23:00;;;;;;;8.90;2.58;;;;;;;-2.45;85.57;97521.47;5128081;27;20439;-74
2022/01/21 07:25:28;;;;;;;8.57;2.78;;;;;;;-2.41;85.84;97533.34;5127298;28;20412;-74
2022/01/21 07:27:55;;;;;;;7.35;2.75;;;;;;;-2.34;85.38;97527.22;5128073;28;20512;-73
2022/01/21 07:30:21;;;;;;;9.95;2.15;;;;;;;-2.29;85.11;97514.91;5127231;28;20055;-74
2022/01/21 07:32:48;;;;;;;5.40;2.30;;;;;;;-2.26;85.09;97529.66;5128155;27;20055;-74
2022/01/21 07:35:16;;;;;;;7.88;2.47;;;;;;;-2.25;84.63;97526.75;5127493;28;20043;-74
2022/01/21 07:37:43;;;;;;;8.25;2.35;;;;;;;-2.25;84.21;97524.09;5127916;27;20460;-75
2022/01/21 07:40:12;;;;;;;11.20;3.03;;;;;;;-2.29;83.95;97530.09;5127090;28;20062;-75
2022/01/21 07:42:40;;;;;;;10.52;3.08;;;;;;;-2.30;84.13;97533.75;5109677;28;20058;-74
2022/01/21 07:45:07;;;;;;;11.52;2.38;;;;;;;-2.25;84.10;97539.28;5107096;28;20035;-75
2022/01/21 07:47:33;;;;;;;8.90;2.65;;;;;;;-2.27;83.61;97539.50;5108892;28;20415;-75
2022/01/21 07:50:00;;;;;;;5.45;2.35;;;;;;;-2.36;83.49;97535.41;5111126;28;20043;-75
2022/01/21 07:52:26;;;;;;;5.90;2.30;;;;;;;-2.45;83.64;97529.47;5110501;28;20055;-75
2022/01/21 07:54:53;;;;;;;6.95;2.65;;;;;;;-2.46;83.45;97530.47;5111069;28;20035;-75
2022/01/21 07:57:20;;;;;;;8.45;2.65;;;;;;;-2.51;83.50;97526.81;5110334;28;20058;-74
2022/01/21 07:59:48;;;;;;;11.98;3.85;;;;;;;-2.46;83.28;97524.34;5110664;28;20052;-74
2022/01/21 08:02:15;;;;;;;9.93;2.75;;;;;;;-2.40;83.04;97529.69;5110408;28;20047;-74
2022/01/21 08:04:41;;;;;;;6.10;1.92;;;;;;;-2.29;82.42;97527.41;5110766;28;20036;-74
2022/01/21 08:07:10;;;;;;;4.68;2.30;;;;;;;-2.33;81.69;97528.84;5110127;28;20518;-74
2022/01/21 08:09:36;;;;;;;5.60;2.45;;;;;;;-2.40;81.41;97529.69;5110626;28;20124;-74
2022/01/21 08:12:03;;;;;;;15.18;4.88;;;;;;;-2.51;81.72;97532.94;5110036;28;20051;-75
2022/01/21 08:14:30;;;;;;;8.65;2.47;;;;;;;-2.62;82.06;97528.25;5110490;28;20048;-74
2022/01/21 08:16:59;;;;;;;7.60;2.60;;;;;;;-2.53;81.84;97532.34;5110507;28;20047;-75
2022/01/21 08:19:25;;;;;;;12.55;3.10;;;;;;;-2.44;81.69;97523.13;5109612;28;20040;-75
2022/01/21 08:21:52;;;;;;;9.63;3.25;;;;;;;-2.33;81.28;97524.34;5110588;28;20439;-74
2022/01/21 08:24:18;;;;;;;9.88;2.45;;;;;;;-2.19;80.82;97519.81;5110002;28;20059;-74
2022/01/21 08:26:45;;;;;;;7.78;2.67;;;;;;;-2.06;80.20;97530.44;5110369;28;20051;-75
2022/01/21 08:29:12;;;;;;;9.57;2.80;;;;;;;-1.87;79.23;97529.56;5109779;28;20048;-75
2022/01/21 08:31:39;;;;;;;8.00;2.72;;;;;;;-1.70;78.23;97519.25;5110326;28;20665;-74
2022/01/21 08:34:06;;;;;;;9.48;2.63;;;;;;;-1.53;77.48;97524.91;5109662;28;20054;-74
2022/01/21 08:36:33;;;;;;;9.07;3.17;;;;;;;-1.51;77.02;97525.53;5110188;28;20055;-74
2022/01/21 08:38:59;;;;;;;9.20;2.88;;;;;;;-1.51;76.71;97522.88;5110178;28;20043;-75
2022/01/21 08:41:26;;;;;;;9.57;2.92;;;;;;;-1.48;76.74;97527.78;5109478;28;20043;-74
2022/01/21 08:43:52;;;;;;;9.90;3.17;;;;;;;-1.50;76.93;97527.19;5110107;28;20043;-74
2022/01/21 08:46:19;;;;;;;8.43;3.00;;;;;;;-1.41;76.88;97519.72;5109556;28;20502;-75
2022/01/21 08:48:46;;;;;;;14.93;3.65;;;;;;;-1.38;76.52;97524.66;5109391;28;20047;-75
2022/01/21 08:51:21;;;;;;;6.47;3.30;;;;;;;-1.34;76.52;97524.00;5109413;28;20124;-75
2022/01/21 08:53:48;;;;;;;10.68;3.47;;;;;;;-1.32;76.51;97529.94;5110010;28;20040;-75
2022/01/21 08:56:17;;;;;;;9.15;3.15;;;;;;;-1.33;76.46;97522.97;5109570;28;20176;-75
2022/01/21 08:58:45;;;;;;;9.82;3.47;;;;;;;-1.23;76.49;97524.38;5109335;28;20047;-74
2022/01/21 09:01:13;;;;;;;9.15;2.90;;;;;;;-1.17;76.20;97528.84;5109274;28;20055;-75
2022/01/21 09:03:41;;;;;;;8.63;2.97;;;;;;;-1.04;76.04;97518.09;5109448;28;20055;-74
2022/01/21 09:06:08;;;;;;;11.93;2.97;;;;;;;-0.93;75.68;97529.94;5109058;28;20055;-74
2022/01/21 09:08:38;;;;;;;10.77;3.50;;;;;;;-0.91;75.03;97528.69;5109377;28;20058;-74
2022/01/21 09:11:05;;;;;;;10.02;3.10;;;;;;;-0.86;75.06;97536.88;5108832;28;20079;-74
2022/01/21 09:13:38;;;;;;;9.95;3.22;;;;;;;-0.69;75.10;97533.66;5109508;28;20108;-73
2022/01/21 09:16:06;;;;;;;6.00;3.05;;;;;;;-0.54;74.62;97529.63;5108761;28;20059;-75
2022/01/21 09:18:44;;;;;;;9.88;3.30;;;;;;;-0.34;74.44;97525.97;5109175;28;20052;-75
2022/01/21 09:21:11;;;;;;;9.40;3.35;;;;;;;-0.18;74.12;97532.63;5108862;28;20135;-74
2022/01/21 09:23:39;;;;;;;9.73;4.03;;;;;;;-0.19;73.36;97533.69;5109385;28;20051;-74
2022/01/21 09:26:07;;;;;;;11.52;3.45;;;;;;;-0.18;72.86;97530.78;5108888;28;20570;-74
2022/01/21 09:28:33;;;;;;;11.48;3.42;;;;;;;-0.23;72.88;97535.16;5108579;28;20502;-74
2022/01/21 09:31:01;;;;;;;8.15;3.58;;;;;;;-0.31;73.22;97534.41;5109010;28;20049;-74
2022/01/21 09:33:27;;;;;;;13.52;3.70;;;;;;;-0.46;73.65;97536.59;5108208;28;20413;-73
2022/01/21 09:35:54;;;;;;;8.80;3.25;;;;;;;-0.38;74.30;97544.31;5107975;28;20032;-73
2022/01/21 09:38:21;;;;;;;6.63;2.75;;;;;;;-0.43;74.06;97544.16;5107967;28;20055;-73
2022/01/21 09:40:50;;;;;;;12.65;4.00;;;;;;;-0.42;74.63;97543.13;5107862;28;20048;-72
2022/01/21 09:43:18;;;;;;;13.88;3.30;;;;;;;-0.45;74.67;97538.22;5107814;28;20691;-73
2022/01/21 09:45:51;;;;;;;13.48;3.42;;;;;;;-0.36;74.39;97544.94;5107882;28;20056;-72
2022/01/21 09:48:22;;;;;;;12.82;4.00;;;;;;;-0.23;74.51;97545.84;5108059;28;20047;-74
2022/01/21 09:50:52;;;;;;;13.10;3.90;;;;;;;-0.15;75.10;97549.09;5108812;28;20066;-74
2022/01/21 09:53:20;;;;;;;12.38;4.13;;;;;;;0.02;74.27;97556.53;5108251;28;20044;-73
2022/01/21 09:55:47;;;;;;;13.70;3.83;;;;;;;0.14;73.67;97552.91;5108450;28;20510;-75
2022/01/21 09:58:15;;;;;;;10.02;3.65;;;;;;;0.04;72.59;97563.31;5108202;28;20498;-74
2022/01/21 10:00:42;;;;;;;14.43;3.97;;;;;;;0.04;73.37;97557.94;5108484;28;20131;-74
2022/01/21 10:03:09;;;;;;;11.23;3.95;;;;;;;-0.08;72.13;97557.03;5107690;28;20047;-74
2022/01/21 10:05:36;;;;;;;14.27;4.15;;;;;;;-0.16;73.02;97555.44;5108583;28;20044;-73
2022/01/21 10:08:04;;;;;;;10.00;3.90;;;;;;;-0.06;73.77;97563.81;5107916;28;20600;-73
2022/01/21 10:10:31;;;;;;;8.60;3.92;;;;;;;0.00;73.92;97567.47;5108180;28;20177;-74
2022/01/21 10:13:03;;;;;;;12.38;3.75;;;;;;;0.08;72.99;97564.50;5108460;28;20055;-74
2022/01/21 10:15:31;;;;;;;11.68;3.65;;;;;;;0.10;73.31;97554.38;5108410;28;20063;-74
2022/01/21 10:18:03;;;;;;;13.10;3.72;;;;;;;0.18;71.37;97554.09;5108066;28;20052;-74
2022/01/21 10:20:29;;;;;;;13.10;4.10;;;;;;;0.22;71.97;97560.66;5107734;28;20040;-74
2022/01/21 10:22:59;;;;;;;11.98;3.80;;;;;;;0.28;73.04;97558.13;5108459;28;20043;-74
2022/01/21 10:25:26;;;;;;;15.07;3.90;;;;;;;0.40;72.47;97559.00;5107569;28;20047;-73
2022/01/21 10:27:53;;;;;;;13.48;3.38;;;;;;;0.40;70.18;97557.16;5108658;28;20043;-74
2022/01/21 10:30:21;;;;;;;11.35;3.85;;;;;;;0.56;71.01;97558.41;5107569;28;20047;-75
2022/01/21 10:32:49;;;;;;;10.48;3.38;;;;;;;0.62;69.30;97560.19;5108214;28;20054;-73
2022/01/21 10:35:20;;;;;;;10.48;3.33;;;;;;;0.57;67.72;97573.44;5107595;28;20048;-74
2022/01/21 10:37:47;;;;;;;12.63;2.90;;;;;;;0.71;66.86;97561.53;5108329;28;20043;-73
2022/01/21 10:40:16;;;;;;;5.90;2.80;;;;;;;0.76;66.57;97567.03;5107490;28;20056;-73
2022/01/21 10:42:43;;;;;;;8.50;2.85;;;;;;;0.74;66.33;97563.75;5108127;28;20051;-74
2022/01/21 10:45:11;;;;;;;10.30;3.05;;;;;;;0.70;66.55;97565.25;5107578;28;20551;-75
2022/01/21 10:47:40;;;;;;;14.25;2.90;;;;;;;0.82;66.61;97567.97;5107840;28;20051;-74
2022/01/21 10:50:11;;;;;;;9.52;3.17;;;;;;;0.95;66.28;97572.38;5107479;28;20043;-74
2022/01/21 10:52:39;;;;;;;11.88;3.30;;;;;;;0.92;66.29;97575.50;5108060;28;20050;-75
2022/01/21 10:55:26;;;;;;;7.40;2.60;;;;;;;1.06;64.45;97576.16;5107469;28;20058;-75
2022/01/21 10:58:07;;;;;;;9.38;2.70;;;;;;;1.33;64.36;97571.22;5107734;28;20048;-75
2022/01/21 11:00:33;;;;;;;9.77;2.50;;;;;;;1.44;61.73;97562.38;5107384;28;20044;-75
2022/01/21 11:03:10;;;;;;;7.15;2.40;;;;;;;1.66;62.56;97566.16;5107926;28;20545;-75
2022/01/21 11:05:41;;;;;;;15.43;3.05;;;;;;;1.81;61.57;97566.50;5107599;28;20478;-75
2022/01/21 11:08:10;;;;;;;10.27;2.83;;;;;;;1.88;61.42;97552.16;5107331;28;20097;-75
2022/01/21 11:10:46;;;;;;;16.08;2.83;;;;;;;1.75;61.83;97553.22;5107273;28;20074;-74
2022/01/21 11:13:31;;;;;;;10.30;3.35;;;;;;;1.69;62.44;97544.22;5086665;28;20059;-75
2022/01/21 11:15:59;;;;;;;8.93;2.65;;;;;;;1.65;62.24;97543.03;5087479;28;20075;-75
2022/01/21 11:18:29;;;;;;;8.98;2.90;;;;;;;1.66;63.85;97544.66;5086737;28;20040;-74
2022/01/21 11:21:05;;;;;;;12.30;3.45;;;;;;;1.55;62.24;97540.09;5087660;28;20048;-75
2022/01/21 11:23:34;;;;;;;12.82;2.65;;;;;;;1.13;63.49;97529.38;5072987;28;20525;-74
2022/01/21 11:26:04;;;;;;;13.50;3.55;;;;;;;0.75;64.78;97529.72;5091120;28;20499;-74
2022/01/21 11:28:40;;;;;;;13.00;3.30;;;;;;;0.45;64.90;97524.31;5090562;28;20040;-75
2022/01/21 11:31:08;;;;;;;7.15;2.78;;;;;;;0.28;65.82;97531.34;5090707;28;20384;-75
2022/01/21 11:33:35;;;;;;;11.43;3.55;;;;;;;0.30;67.92;97518.53;5091154;28;20048;-75
2022/01/21 11:36:04;;;;;;;8.75;2.80;;;;;;;0.55;67.65;97516.56;5090855;28;20044;-74
2022/01/21 11:38:35;;;;;;;10.48;3.15;;;;;;;0.80;65.27;97512.97;5090743;28;20097;-74
2022/01/21 11:41:03;;;;;;;10.80;2.90;;;;;;;0.94;63.90;97520.59;5094625;28;20075;-74
2022/01/21 11:43:31;;;;;;;9.50;2.97;;;;;;;1.09;63.08;97516.66;5111012;28;20496;-74
2022/01/21 11:46:17;;;;;;;10.15;2.47;;;;;;;1.20;62.53;97507.81;5110984;28;20135;-74
2022/01/21 11:48:51;;;;;;;8.57;2.72;;;;;;;1.25;64.15;97511.47;5110742;28;20550;-75
2022/01/21 11:51:22;;;;;;;8.32;2.97;;;;;;;1.13;62.58;97512.47;5110840;28;20047;-75
2022/01/21 11:53:50;;;;;;;14.38;3.20;;;;;;;0.88;63.03;97486.63;5111008;28;20502;-75
2022/01/21 11:56:36;;;;;;;6.97;2.83;;;;;;;0.77;63.85;97487.41;5110621;28;20047;-75
2022/01/21 11:59:08;;;;;;;10.90;2.70;;;;;;;0.78;63.76;97470.25;5110469;28;20054;-74
2022/01/21 12:01:39;;;;;;;6.50;2.10;;;;;;;0.84;62.93;97471.25;5110936;28;20047;-75
2022/01/21 12:04:06;;;;;;;10.00;2.90;;;;;;;0.92;63.65;97473.59;5110345;28;20268;-75
2022/01/21 12:06:35;;;;;;;12.88;2.63;;;;;;;0.81;62.21;97482.41;5110913;28;20095;-75
2022/01/21 12:09:04;;;;;;;13.52;2.38;;;;;;;0.61;62.54;97472.78;5110172;28;20135;-76
2022/01/21 12:11:34;;;;;;;6.65;2.10;;;;;;;0.47;62.30;97472.16;5110533;28;20063;-74
2022/01/21 12:14:05;;;;;;;5.65;2.13;;;;;;;0.47;63.18;97466.78;5111070;28;20051;-75
2022/01/21 12:16:52;;;;;;;8.63;2.45;;;;;;;0.46;63.14;97470.50;5110569;28;20044;-74
2022/01/21 12:19:31;;;;;;;7.10;1.80;;;;;;;0.56;63.17;97469.13;5109850;28;20051;-75